Time;durP1;ratioP1;P1;durP2;ratioP2;P2;SDS_P1;SDS_P2;PMS_P1;PMS_P2;Temp;Humidity;BMP_temperature;BMP_pressure;BME280_temperature;BME280_humidity;BME280_pressure;Samples;Min_cycle;Max_cycle;Signal;HPM_P1;HPM_P2
2023/01/14 00:00:55;;;;;;;1.30;0.70;;;;;;;;;;5077305;28;20204;-64
2023/01/14 00:03:23;;;;;;;0.90;0.52;;;;;;;;;;5077244;28;20584;-64
2023/01/14 00:05:58;;;;;;;2.50;1.00;;;;;;;;;;5077298;28;20291;-64
2023/01/14 00:08:26;;;;;;;1.42;0.80;;;;;;;;;;5077695;28;20694;-64
2023/01/14 00:10:54;;;;;;;0.85;0.70;;;;;;;;;;5077043;28;20287;-64
2023/01/14 00:13:22;;;;;;;1.00;0.73;;;;;;;;;;5076444;28;20205;-64
2023/01/14 00:15:55;;;;;;;2.08;0.80;;;;;;;;;;5077067;28;20309;-64
2023/01/14 00:18:23;;;;;;;1.98;0.63;;;;;;;;;;5077138;28;20236;-64
2023/01/14 00:20:58;;;;;;;0.95;0.70;;;;;;;;;;5076895;28;20211;-64
2023/01/14 00:23:26;;;;;;;0.93;0.70;;;;;;;;;;5077115;28;20204;-64
2023/01/14 00:25:54;;;;;;;0.70;0.55;;;;;;;;;;5077399;28;20204;-63
2023/01/14 00:28:21;;;;;;;1.83;0.68;;;;;;;;;;5076138;28;20304;-64
2023/01/14 00:30:49;;;;;;;1.65;0.70;;;;;;;;;;5077315;28;20204;-64
2023/01/14 00:33:18;;;;;;;1.65;0.70;;;;;;;;;;5077046;28;20495;-64
2023/01/14 00:35:53;;;;;;;2.50;0.60;;;;;;;;;;5077187;28;20207;-64
2023/01/14 00:38:21;;;;;;;0.95;0.60;;;;;;;;;;5077142;28;20462;-64
2023/01/14 00:40:49;;;;;;;0.90;0.68;;;;;;;;;;5077045;28;20204;-64
2023/01/14 00:43:16;;;;;;;0.63;0.50;;;;;;;;;;5077145;28;20211;-64
2023/01/14 00:45:44;;;;;;;1.13;0.70;;;;;;;;;;5077260;28;20679;-64
2023/01/14 00:48:12;;;;;;;1.85;0.65;;;;;;;;;;5076796;28;20232;-64
2023/01/14 00:50:41;;;;;;;0.88;0.80;;;;;;;;;;5076734;28;20215;-64
2023/01/14 00:53:08;;;;;;;1.65;0.77;;;;;;;;;;5076746;28;20217;-64
2023/01/14 00:55:36;;;;;;;1.27;0.80;;;;;;;;;;5076564;28;20246;-64
2023/01/14 00:58:04;;;;;;;1.23;0.90;;;;;;;;;;5076328;28;20645;-64
2023/01/14 01:00:32;;;;;;;1.20;0.70;;;;;;;;;;5076806;28;20211;-64
2023/01/14 01:02:59;;;;;;;1.00;0.73;;;;;;;;;;5076598;28;20307;-64
2023/01/14 01:05:27;;;;;;;1.08;0.70;;;;;;;;;;5076691;28;20532;-64
2023/01/14 01:07:56;;;;;;;0.80;0.65;;;;;;;;;;5076795;28;20319;-64
2023/01/14 01:10:24;;;;;;;0.73;0.70;;;;;;;;;;5076400;28;20211;-64
2023/01/14 01:12:52;;;;;;;0.60;0.50;;;;;;;;;;5076392;28;20214;-64
2023/01/14 01:15:19;;;;;;;1.52;0.80;;;;;;;;;;5076728;28;20208;-64
2023/01/14 01:17:47;;;;;;;1.23;0.63;;;;;;;;;;5076496;28;20199;-64
2023/01/14 01:20:15;;;;;;;0.98;0.63;;;;;;;;;;5076850;28;20212;-65
2023/01/14 01:22:43;;;;;;;1.23;0.70;;;;;;;;;;5076466;28;20204;-64
2023/01/14 01:25:12;;;;;;;1.10;0.60;;;;;;;;;;5076102;28;20545;-64
2023/01/14 01:27:39;;;;;;;1.50;0.70;;;;;;;;;;5076466;28;20228;-64
2023/01/14 01:30:08;;;;;;;0.95;0.50;;;;;;;;;;5076739;28;20215;-64
2023/01/14 01:32:35;;;;;;;1.58;0.90;;;;;;;;;;5076403;28;20204;-64
2023/01/14 01:35:03;;;;;;;0.77;0.65;;;;;;;;;;5076653;28;20196;-64
2023/01/14 01:37:31;;;;;;;1.63;0.77;;;;;;;;;;5076626;28;20208;-64
2023/01/14 01:39:58;;;;;;;1.60;0.60;;;;;;;;;;5079177;28;20215;-64
2023/01/14 01:42:28;;;;;;;0.57;0.50;;;;;;;;;;5079805;28;20250;-64
2023/01/14 01:45:14;;;;;;;0.93;0.60;;;;;;;;;;5080349;28;20204;-64
2023/01/14 01:47:41;;;;;;;0.82;0.55;;;;;;;;;;5070445;28;20332;-64
2023/01/14 01:50:09;;;;;;;0.65;0.50;;;;;;;;;;5079781;28;20208;-64
2023/01/14 01:52:37;;;;;;;0.75;0.60;;;;;;;;;;5080119;28;20557;-64
2023/01/14 01:55:08;;;;;;;1.60;0.65;;;;;;;;;;5080004;28;20204;-63
2023/01/14 01:57:37;;;;;;;0.77;0.50;;;;;;;;;;5080083;28;20616;-64
2023/01/14 02:00:10;;;;;;;0.63;0.52;;;;;;;;;;5079577;28;20222;-64
2023/01/14 02:02:37;;;;;;;0.98;0.60;;;;;;;;;;5079843;28;20299;-64
2023/01/14 02:05:05;;;;;;;1.30;0.50;;;;;;;;;;5080280;28;20204;-64
2023/01/14 02:07:33;;;;;;;1.17;0.65;;;;;;;;;;5080231;28;20227;-64
2023/01/14 02:10:01;;;;;;;1.00;0.68;;;;;;;;;;5080157;28;20681;-64
2023/01/14 02:12:36;;;;;;;1.55;0.80;;;;;;;;;;5079719;28;20205;-64
2023/01/14 02:15:14;;;;;;;0.70;0.47;;;;;;;;;;5079708;28;20204;-64
2023/01/14 02:17:47;;;;;;;0.70;0.50;;;;;;;;;;5079871;28;20268;-64
2023/01/14 02:20:18;;;;;;;0.95;0.60;;;;;;;;;;5080004;28;20332;-64
2023/01/14 02:23:03;;;;;;;0.95;0.50;;;;;;;;;;5079795;28;20205;-64
2023/01/14 02:25:44;;;;;;;1.48;0.70;;;;;;;;;;5079633;28;20213;-64
2023/01/14 02:28:17;;;;;;;1.70;0.70;;;;;;;;;;5079273;28;20372;-64
2023/01/14 02:30:50;;;;;;;0.75;0.60;;;;;;;;;;5079451;28;20208;-64
2023/01/14 02:33:24;;;;;;;1.42;0.60;;;;;;;;;;5079526;28;20215;-64
2023/01/14 02:35:54;;;;;;;1.23;0.60;;;;;;;;;;5079046;28;20204;-64
2023/01/14 02:38:25;;;;;;;1.02;0.70;;;;;;;;;;5079030;28;20518;-64
2023/01/14 02:40:55;;;;;;;1.48;0.55;;;;;;;;;;5079111;28;20679;-64
2023/01/14 02:46:15;;;;;;;1.25;0.60;;;;;;;;;;5078591;28;20731;-64
2023/01/14 02:48:44;;;;;;;1.83;0.90;;;;;;;;;;5079086;28;20264;-64
2023/01/14 02:51:12;;;;;;;2.47;0.70;;;;;;;;;;5078116;28;20208;-64
2023/01/14 02:53:40;;;;;;;1.02;0.75;;;;;;;;;;5078930;28;20232;-64
2023/01/14 02:56:08;;;;;;;1.10;0.50;;;;;;;;;;5078435;28;20246;-64
2023/01/14 02:58:44;;;;;;;1.25;0.70;;;;;;;;;;5078864;28;20200;-63
2023/01/14 03:01:17;;;;;;;1.15;0.63;;;;;;;;;;5078721;28;20242;-64
2023/01/14 03:03:54;;;;;;;1.60;0.70;;;;;;;;;;5079388;28;20557;-64
2023/01/14 03:06:26;;;;;;;1.05;0.70;;;;;;;;;;5078864;28;20595;-64
2023/01/14 03:08:58;;;;;;;0.82;0.60;;;;;;;;;;5078633;28;20224;-64
2023/01/14 03:11:26;;;;;;;0.65;0.40;;;;;;;;;;5078914;28;20449;-64
2023/01/14 03:13:59;;;;;;;0.95;0.88;;;;;;;;;;5078674;28;20204;-64
2023/01/14 03:16:30;;;;;;;0.82;0.70;;;;;;;;;;5078306;28;20212;-64
2023/01/14 03:19:01;;;;;;;0.47;0.40;;;;;;;;;;5078489;28;20565;-64
2023/01/14 03:21:32;;;;;;;1.15;0.60;;;;;;;;;;5078489;28;20211;-64
2023/01/14 03:24:01;;;;;;;0.85;0.60;;;;;;;;;;5078218;28;20230;-64
2023/01/14 03:26:31;;;;;;;0.88;0.57;;;;;;;;;;5078075;28;20204;-64
2023/01/14 03:29:00;;;;;;;0.88;0.50;;;;;;;;;;5078169;28;20224;-64
2023/01/14 03:31:31;;;;;;;1.45;0.70;;;;;;;;;;5078159;28;20208;-64
2023/01/14 03:34:00;;;;;;;1.10;0.50;;;;;;;;;;5078117;28;20227;-64
2023/01/14 03:36:29;;;;;;;0.80;0.60;;;;;;;;;;5078133;28;20262;-64
2023/01/14 03:38:59;;;;;;;1.10;0.60;;;;;;;;;;5077805;28;20541;-64
2023/01/14 03:44:16;;;;;;;0.90;0.63;;;;;;;;;;5077723;28;20196;-64
2023/01/14 03:46:45;;;;;;;0.77;0.50;;;;;;;;;;5077811;28;20208;-64
2023/01/14 03:49:13;;;;;;;1.42;0.73;;;;;;;;;;5077943;28;20619;-65
2023/01/14 03:51:43;;;;;;;1.27;0.68;;;;;;;;;;5078128;28;20513;-65
2023/01/14 03:54:14;;;;;;;1.40;0.85;;;;;;;;;;5078231;28;20201;-63
2023/01/14 03:56:45;;;;;;;0.93;0.60;;;;;;;;;;5077788;28;20240;-64
2023/01/14 03:59:17;;;;;;;1.17;0.55;;;;;;;;;;5078211;28;20257;-64
2023/01/14 04:01:47;;;;;;;1.75;0.80;;;;;;;;;;5077860;28;20204;-64
2023/01/14 04:04:15;;;;;;;1.30;0.60;;;;;;;;;;5077862;28;20208;-65
2023/01/14 04:06:42;;;;;;;1.42;0.73;;;;;;;;;;5077406;28;20302;-65
2023/01/14 04:09:10;;;;;;;0.98;0.70;;;;;;;;;;5077690;28;20255;-64
2023/01/14 04:11:39;;;;;;;1.23;0.68;;;;;;;;;;5077751;28;20204;-64
2023/01/14 04:16:52;;;;;;;1.48;0.60;;;;;;;;;;5077172;28;20187;-64
2023/01/14 04:19:20;;;;;;;1.92;0.70;;;;;;;;;;5077557;28;20216;-64
2023/01/14 04:21:48;;;;;;;1.30;0.50;;;;;;;;;;5076861;28;20212;-64
2023/01/14 04:24:15;;;;;;;1.17;0.50;;;;;;;;;;5077306;28;20247;-64
2023/01/14 04:26:43;;;;;;;1.33;0.65;;;;;;;;;;5077233;28;20208;-64
2023/01/14 04:29:11;;;;;;;1.02;0.70;;;;;;;;;;5077446;28;20238;-64
2023/01/14 04:31:39;;;;;;;1.33;0.70;;;;;;;;;;5077426;28;20204;-64
2023/01/14 04:34:08;;;;;;;1.35;0.70;;;;;;;;;;5077774;28;20204;-64
2023/01/14 04:36:35;;;;;;;1.88;0.80;;;;;;;;;;5077147;28;20234;-64
2023/01/14 04:39:03;;;;;;;1.10;0.63;;;;;;;;;;5077379;28;20266;-64
2023/01/14 04:44:16;;;;;;;1.10;0.63;;;;;;;;;;5076839;28;20241;-64
2023/01/14 04:46:44;;;;;;;1.77;0.80;;;;;;;;;;5077384;28;20291;-64
2023/01/14 04:49:13;;;;;;;0.65;0.60;;;;;;;;;;5076688;28;20560;-64
2023/01/14 04:51:41;;;;;;;0.98;0.60;;;;;;;;;;5076779;28;20526;-64
2023/01/14 04:54:10;;;;;;;0.60;0.50;;;;;;;;;;5076269;28;20269;-64
2023/01/14 04:56:37;;;;;;;1.15;0.80;;;;;;;;;;5076899;28;20286;-64
2023/01/14 04:59:05;;;;;;;1.52;0.80;;;;;;;;;;5076752;28;20200;-64
2023/01/14 05:01:32;;;;;;;1.27;0.70;;;;;;;;;;5077283;28;20204;-64
2023/01/14 05:04:00;;;;;;;0.80;0.70;;;;;;;;;;5076679;28;20204;-64
2023/01/14 05:06:29;;;;;;;2.38;0.70;;;;;;;;;;5076965;28;20289;-64
2023/01/14 05:08:57;;;;;;;2.22;0.60;;;;;;;;;;5076764;28;20314;-64
2023/01/14 05:11:24;;;;;;;1.27;0.70;;;;;;;;;;5076674;28;20250;-64
2023/01/14 05:13:51;;;;;;;1.15;0.60;;;;;;;;;;5077997;28;20479;-64
2023/01/14 05:16:19;;;;;;;0.68;0.60;;;;;;;;;;5080493;28;20299;-64
2023/01/14 05:18:47;;;;;;;0.85;0.63;;;;;;;;;;5080398;28;20200;-64
2023/01/14 05:21:14;;;;;;;0.88;0.60;;;;;;;;;;5080667;28;20204;-64
2023/01/14 05:23:43;;;;;;;0.57;0.57;;;;;;;;;;5080417;28;20265;-64
2023/01/14 05:26:10;;;;;;;1.38;0.60;;;;;;;;;;5080660;28;20210;-64
2023/01/14 05:28:37;;;;;;;1.08;0.55;;;;;;;;;;5080524;28;20753;-63
2023/01/14 05:31:05;;;;;;;2.08;0.90;;;;;;;;;;5080773;28;20204;-64
2023/01/14 05:33:33;;;;;;;0.68;0.50;;;;;;;;;;5080359;28;20510;-64
2023/01/14 05:36:01;;;;;;;0.68;0.55;;;;;;;;;;5080994;28;20303;-64
2023/01/14 05:38:29;;;;;;;1.25;0.70;;;;;;;;;;5080567;28;20211;-64
2023/01/14 05:40:57;;;;;;;1.10;0.70;;;;;;;;;;5080402;28;20248;-64
2023/01/14 05:46:10;;;;;;;0.85;0.60;;;;;;;;;;5079940;28;20604;-64
2023/01/14 05:48:38;;;;;;;1.40;0.80;;;;;;;;;;5080256;28;20283;-64
2023/01/14 05:51:06;;;;;;;0.95;0.60;;;;;;;;;;5079924;28;20244;-64
2023/01/14 05:53:33;;;;;;;1.08;0.70;;;;;;;;;;5080201;28;20236;-64
2023/01/14 05:56:02;;;;;;;1.02;0.60;;;;;;;;;;5080334;28;20228;-63
2023/01/14 05:58:30;;;;;;;1.42;0.70;;;;;;;;;;5079840;28;20287;-64
2023/01/14 06:06:34;;;;;;;1.05;0.50;;;;;;;;;;5079646;28;20608;-64
2023/01/14 06:09:02;;;;;;;0.88;0.60;;;;;;;;;;5079897;28;20228;-64
2023/01/14 06:11:33;;;;;;;0.98;0.70;;;;;;;;;;5079969;28;20561;-64
2023/01/14 06:14:00;;;;;;;1.50;0.60;;;;;;;;;;5079710;28;20485;-64
2023/01/14 06:16:28;;;;;;;0.88;0.60;;;;;;;;;;5079778;28;20298;-64
2023/01/14 06:18:56;;;;;;;1.35;0.70;;;;;;;;;;5079561;28;20207;-64
2023/01/14 06:21:24;;;;;;;1.08;0.65;;;;;;;;;;5079634;28;20255;-63
2023/01/14 06:23:52;;;;;;;1.40;0.73;;;;;;;;;;5079339;28;20580;-63
2023/01/14 06:26:26;;;;;;;1.02;0.57;;;;;;;;;;5079249;28;20613;-65
2023/01/14 06:28:57;;;;;;;1.05;0.68;;;;;;;;;;5079032;28;20236;-64
2023/01/14 06:31:24;;;;;;;1.05;0.70;;;;;;;;;;5079469;28;20208;-64
2023/01/14 06:33:52;;;;;;;0.50;0.50;;;;;;;;;;5078716;28;20204;-64
2023/01/14 06:36:19;;;;;;;1.27;0.77;;;;;;;;;;5078897;28;20802;-64
2023/01/14 06:38:46;;;;;;;0.90;0.43;;;;;;;;;;5079290;28;20555;-65
2023/01/14 06:41:14;;;;;;;1.48;0.60;;;;;;;;;;5079391;28;20204;-64
2023/01/14 06:43:42;;;;;;;0.77;0.65;;;;;;;;;;5078857;28;20211;-64
2023/01/14 06:46:11;;;;;;;0.85;0.60;;;;;;;;;;5079172;28;20236;-64
2023/01/14 06:48:38;;;;;;;0.63;0.50;;;;;;;;;;5078945;28;20224;-64
2023/01/14 06:51:07;;;;;;;1.38;0.70;;;;;;;;;;5078911;28;20204;-64
2023/01/14 06:53:34;;;;;;;1.17;0.80;;;;;;;;;;5078697;28;20251;-64
2023/01/14 06:56:03;;;;;;;0.77;0.55;;;;;;;;;;5079011;28;20547;-64
2023/01/14 06:58:30;;;;;;;1.00;0.70;;;;;;;;;;5078446;28;20200;-63
2023/01/14 07:00:58;;;;;;;0.95;0.63;;;;;;;;;;5078951;28;20306;-64
2023/01/14 07:03:28;;;;;;;1.13;0.80;;;;;;;;;;5078897;28;20747;-64
2023/01/14 07:05:55;;;;;;;1.30;0.70;;;;;;;;;;5078096;28;20204;-64
2023/01/14 07:08:23;;;;;;;1.15;0.75;;;;;;;;;;5079022;28;20560;-64
2023/01/14 07:10:51;;;;;;;0.80;0.52;;;;;;;;;;5078066;28;20295;-64
2023/01/14 07:13:19;;;;;;;1.08;0.70;;;;;;;;;;5077800;28;20212;-64
2023/01/14 07:15:47;;;;;;;1.08;0.70;;;;;;;;;;5077905;28;20667;-64
2023/01/14 07:18:14;;;;;;;1.02;0.65;;;;;;;;;;5078282;28;20212;-64
2023/01/14 07:20:43;;;;;;;0.80;0.65;;;;;;;;;;5077734;28;20464;-64
2023/01/14 07:23:11;;;;;;;1.27;0.60;;;;;;;;;;5077576;28;20733;-64
2023/01/14 07:25:39;;;;;;;1.23;0.88;;;;;;;;;;5078241;28;20204;-64
2023/01/14 07:28:06;;;;;;;1.15;0.75;;;;;;;;;;5077848;28;20270;-64
2023/01/14 07:30:34;;;;;;;0.95;0.50;;;;;;;;;;5077991;28;20560;-63
2023/01/14 07:33:01;;;;;;;0.80;0.60;;;;;;;;;;5077985;28;20205;-64
2023/01/14 07:35:29;;;;;;;0.85;0.50;;;;;;;;;;5077269;28;20295;-63
2023/01/14 07:37:58;;;;;;;1.00;0.70;;;;;;;;;;5076945;28;20333;-64
2023/01/14 07:40:26;;;;;;;1.13;0.75;;;;;;;;;;5077138;28;20204;-64
2023/01/14 07:42:56;;;;;;;1.50;0.60;;;;;;;;;;5077524;28;20204;-64
2023/01/14 07:45:23;;;;;;;1.75;0.70;;;;;;;;;;5076984;28;20596;-64
2023/01/14 07:47:51;;;;;;;0.88;0.75;;;;;;;;;;5077543;28;20215;-64
2023/01/14 07:50:18;;;;;;;1.20;0.70;;;;;;;;;;5076378;28;20238;-65
2023/01/14 07:52:52;;;;;;;1.77;0.68;;;;;;;;;;5076916;28;20239;-64
2023/01/14 07:55:21;;;;;;;1.40;0.73;;;;;;;;;;5076554;28;20618;-64
2023/01/14 07:57:48;;;;;;;1.00;0.60;;;;;;;;;;5076603;28;20211;-64
2023/01/14 08:00:16;;;;;;;1.20;0.77;;;;;;;;;;5076055;28;20299;-64
2023/01/14 08:02:44;;;;;;;1.13;0.80;;;;;;;;;;5076104;28;20200;-63
2023/01/14 08:05:11;;;;;;;1.15;0.60;;;;;;;;;;5076404;28;20269;-63
2023/01/14 08:07:39;;;;;;;1.08;0.75;;;;;;;;;;5076254;28;20204;-64
2023/01/14 08:10:07;;;;;;;0.80;0.70;;;;;;;;;;5075923;28;20314;-64
2023/01/14 08:12:36;;;;;;;1.63;0.82;;;;;;;;;;5077122;28;20208;-64
2023/01/14 08:15:04;;;;;;;0.80;0.70;;;;;;;;;;5077134;28;20212;-64
2023/01/14 08:17:31;;;;;;;1.15;0.77;;;;;;;;;;5076873;28;20290;-64
2023/01/14 08:19:59;;;;;;;1.50;0.80;;;;;;;;;;5076936;28;20200;-64
2023/01/14 08:22:26;;;;;;;1.15;0.60;;;;;;;;;;5076716;28;20303;-64
2023/01/14 08:24:54;;;;;;;1.10;0.80;;;;;;;;;;5076196;28;20287;-64
2023/01/14 08:27:21;;;;;;;1.92;1.02;;;;;;;;;;5076706;28;20204;-64
2023/01/14 08:29:50;;;;;;;1.20;0.80;;;;;;;;;;5076302;28;20330;-64
2023/01/14 08:32:17;;;;;;;1.35;0.75;;;;;;;;;;5076521;28;20204;-64
2023/01/14 08:34:45;;;;;;;1.30;0.70;;;;;;;;;;5076333;28;20204;-64
2023/01/14 08:37:12;;;;;;;1.60;0.85;;;;;;;;;;5075945;28;20210;-64
2023/01/14 08:39:39;;;;;;;1.35;0.80;;;;;;;;;;5075937;28;20235;-64
2023/01/14 08:42:07;;;;;;;1.35;0.80;;;;;;;;;;5076161;28;20200;-64
2023/01/14 08:44:34;;;;;;;0.90;0.70;;;;;;;;;;5075339;28;20274;-64
2023/01/14 08:47:03;;;;;;;1.85;1.10;;;;;;;;;;5076010;28;20238;-64
2023/01/14 08:49:31;;;;;;;1.30;0.80;;;;;;;;;;5077906;28;20228;-64
2023/01/14 08:51:59;;;;;;;1.58;0.77;;;;;;;;;;5079751;28;20303;-63
2023/01/14 08:54:26;;;;;;;2.38;0.88;;;;;;;;;;5080278;28;20631;-64
2023/01/14 08:56:55;;;;;;;2.08;0.80;;;;;;;;;;5079399;28;20236;-64
2023/01/14 08:59:23;;;;;;;1.40;0.68;;;;;;;;;;5079214;28;20200;-64
2023/01/14 09:01:50;;;;;;;1.48;0.80;;;;;;;;;;5079232;28;20215;-64
2023/01/14 09:04:19;;;;;;;1.35;0.82;;;;;;;;;;5079625;28;20647;-64
2023/01/14 09:17:55;;;;;;;1.50;0.85;;;;;;;;;;5042634;28;20196;-64
2023/01/14 09:20:27;;;;;;;1.35;0.90;;;;;;;;;;5078900;28;20251;-64
2023/01/14 09:22:54;;;;;;;4.82;0.90;;;;;;;;;;5078944;28;20295;-64
2023/01/14 09:25:22;;;;;;;2.28;1.05;;;;;;;;;;5078950;28;20694;-64
2023/01/14 09:27:49;;;;;;;3.20;1.10;;;;;;;;;;5077853;28;20302;-64
2023/01/14 09:30:17;;;;;;;2.40;1.02;;;;;;;;;;5077811;28;20228;-64
2023/01/14 09:32:44;;;;;;;2.28;1.00;;;;;;;;;;5078784;28;20812;-64
2023/01/14 09:35:12;;;;;;;3.08;1.05;;;;;;;;;;5079305;28;20485;-64
2023/01/14 09:37:41;;;;;;;2.78;0.98;;;;;;;;;;5079103;28;20303;-64
2023/01/14 09:40:09;;;;;;;1.98;0.90;;;;;;;;;;5079219;28;20196;-64
2023/01/14 09:42:38;;;;;;;1.27;0.93;;;;;;;;;;5079001;28;20222;-64
2023/01/14 09:45:08;;;;;;;1.50;0.90;;;;;;;;;;5078206;28;20218;-64
2023/01/14 09:47:35;;;;;;;3.25;0.90;;;;;;;;;;5078576;28;20304;-64
2023/01/14 09:50:05;;;;;;;2.17;1.02;;;;;;;;;;5078806;28;20228;-64
2023/01/14 09:52:45;;;;;;;2.53;1.10;;;;;;;;;;5078814;28;20263;-64
2023/01/14 09:55:17;;;;;;;2.35;1.00;;;;;;;;;;5078887;28;20548;-64
2023/01/14 09:57:48;;;;;;;1.65;0.90;;;;;;;;;;5078206;28;20739;-64
2023/01/14 10:00:33;;;;;;;3.20;1.17;;;;;;;;;;5077803;28;20231;-64
2023/01/14 10:03:18;;;;;;;2.05;1.08;;;;;;;;;;5078006;28;20679;-64
2023/01/14 10:05:47;;;;;;;1.80;0.98;;;;;;;;;;5077487;28;20318;-64
2023/01/14 10:08:16;;;;;;;2.00;0.93;;;;;;;;;;5077688;28;20197;-64
2023/01/14 10:10:46;;;;;;;2.53;1.00;;;;;;;;;;5077598;28;20235;-64
2023/01/14 10:13:15;;;;;;;1.52;0.90;;;;;;;;;;5077704;28;20311;-64
2023/01/14 10:15:44;;;;;;;1.92;1.00;;;;;;;;;;5077881;28;20210;-64
2023/01/14 10:18:15;;;;;;;3.15;1.25;;;;;;;;;;5077534;28;20210;-64
2023/01/14 10:20:50;;;;;;;1.75;0.98;;;;;;;;;;5076946;28;20572;-64
2023/01/14 10:23:19;;;;;;;2.28;1.08;;;;;;;;;;5077206;28;20451;-64
2023/01/14 10:25:49;;;;;;;2.10;1.27;;;;;;;;;;5077947;28;20294;-64
2023/01/14 10:28:18;;;;;;;3.65;1.10;;;;;;;;;;5077908;28;20287;-64
2023/01/14 10:30:46;;;;;;;1.92;1.05;;;;;;;;;;5077774;28;20232;-64
2023/01/14 10:33:14;;;;;;;2.13;0.88;;;;;;;;;;5077319;28;20600;-64
2023/01/14 10:35:43;;;;;;;1.95;0.90;;;;;;;;;;5077314;28;20207;-64
2023/01/14 10:38:12;;;;;;;2.28;1.10;;;;;;;;;;5076729;28;20294;-64
2023/01/14 10:40:39;;;;;;;1.75;1.10;;;;;;;;;;5077550;28;20283;-64
2023/01/14 10:43:17;;;;;;;1.77;0.90;;;;;;;;;;5076897;28;20311;-64
2023/01/14 10:45:44;;;;;;;2.10;1.15;;;;;;;;;;5077485;28;20296;-64
2023/01/14 10:48:17;;;;;;;1.58;0.93;;;;;;;;;;5076341;28;20303;-64
2023/01/14 10:50:45;;;;;;;2.45;0.93;;;;;;;;;;5076330;28;20314;-64
2023/01/14 10:53:17;;;;;;;3.13;0.95;;;;;;;;;;5077042;28;20671;-64
2023/01/14 10:55:48;;;;;;;2.72;1.00;;;;;;;;;;5076469;28;20496;-64
2023/01/14 10:58:18;;;;;;;1.75;1.00;;;;;;;;;;5076562;28;20340;-64
2023/01/14 11:00:50;;;;;;;1.90;0.95;;;;;;;;;;5076127;28;20299;-64
2023/01/14 11:03:22;;;;;;;2.08;1.02;;;;;;;;;;5077092;28;20205;-64
2023/01/14 11:05:55;;;;;;;1.92;1.02;;;;;;;;;;5076602;28;20286;-64
2023/01/14 11:08:23;;;;;;;1.33;0.88;;;;;;;;;;5076588;28;20196;-64
2023/01/14 11:10:57;;;;;;;2.63;1.17;;;;;;;;;;5075616;28;20261;-64
2023/01/14 11:13:29;;;;;;;2.15;1.15;;;;;;;;;;5075685;28;20295;-64
2023/01/14 11:15:56;;;;;;;2.58;1.20;;;;;;;;;;5076036;28;20312;-64
2023/01/14 11:18:28;;;;;;;2.05;1.00;;;;;;;;;;5076134;28;20202;-64
2023/01/14 11:20:57;;;;;;;1.95;0.95;;;;;;;;;;5076339;28;20200;-64
2023/01/14 11:23:28;;;;;;;3.22;1.45;;;;;;;;;;5076557;28;20211;-64
2023/01/14 11:25:55;;;;;;;2.05;1.23;;;;;;;;;;5076061;28;20227;-64
2023/01/14 11:28:23;;;;;;;2.47;1.10;;;;;;;;;;5075805;28;20204;-64
2023/01/14 11:30:54;;;;;;;1.80;0.93;;;;;;;;;;5075612;28;20601;-64
2023/01/14 11:33:23;;;;;;;1.65;1.27;;;;;;;;;;5075808;28;20204;-64
2023/01/14 11:35:51;;;;;;;2.97;0.98;;;;;;;;;;5075677;28;20664;-64
2023/01/14 11:38:21;;;;;;;1.90;0.90;;;;;;;;;;5076303;28;20204;-64
2023/01/14 11:43:52;;;;;;;2.97;1.10;;;;;;;;;;5075838;28;20219;-64
2023/01/14 11:46:21;;;;;;;2.17;1.00;;;;;;;;;;5075500;28;20203;-64
2023/01/14 11:49:14;;;;;;;2.70;1.48;;;;;;;;;;5075417;28;20723;-64
2023/01/14 11:51:42;;;;;;;2.15;1.40;;;;;;;;;;5076111;28;20208;-64
2023/01/14 11:54:17;;;;;;;1.85;1.27;;;;;;;;;;5076015;28;20588;-64
2023/01/14 11:56:45;;;;;;;1.83;1.58;;;;;;;;;;5075890;28;20330;-64
2023/01/14 11:59:18;;;;;;;2.17;1.30;;;;;;;;;;5075979;28;20227;-64
2023/01/14 12:01:50;;;;;;;2.90;1.80;;;;;;;;;;5075291;28;20304;-64
2023/01/14 12:04:19;;;;;;;2.65;1.48;;;;;;;;;;5075411;28;20295;-64
2023/01/14 12:06:48;;;;;;;2.30;1.40;;;;;;;;;;5075379;28;20208;-64
2023/01/14 12:09:20;;;;;;;2.13;1.75;;;;;;;;;;5074612;28;20196;-64
2023/01/14 12:11:50;;;;;;;2.28;1.40;;;;;;;;;;5074715;28;20247;-64
2023/01/14 12:17:10;;;;;;;2.40;1.58;;;;;;;;;;5061228;28;20204;-64
2023/01/14 12:19:40;;;;;;;2.38;1.60;;;;;;;;;;5054765;28;20196;-64
2023/01/14 12:22:15;;;;;;;1.98;1.42;;;;;;;;;;5055379;28;20213;-64
2023/01/14 12:24:48;;;;;;;2.17;1.67;;;;;;;;;;5054956;28;20205;-64
2023/01/14 12:27:41;;;;;;;2.17;1.55;;;;;;;;;;5054628;28;20719;-64
2023/01/14 12:30:07;;;;;;;2.05;1.75;;;;;;;;;;5054499;28;20534;-64
2023/01/14 12:32:36;;;;;;;3.35;1.42;;;;;;;;;;5054836;28;20201;-64
2023/01/14 12:35:05;;;;;;;2.00;1.40;;;;;;;;;;5053732;28;20227;-64
2023/01/14 12:37:38;;;;;;;4.75;1.55;;;;;;;;;;5054609;28;20259;-64
2023/01/14 12:45:51;;;;;;;8.40;2.10;;;;;;;;;;5052665;28;20583;-64
2023/01/14 12:48:20;;;;;;;11.27;5.40;;;;;;;;;;5053786;28;20311;-64
2023/01/14 12:50:53;;;;;;;39.92;27.45;;;;;;;;;;5053132;28;20264;-63
2023/01/14 12:53:23;;;;;;;29.08;20.02;;;;;;;;;;5054534;28;20204;-63
2023/01/14 12:55:51;;;;;;;29.17;19.00;;;;;;;;;;5053275;28;20251;-63
2023/01/14 12:58:20;;;;;;;24.88;18.75;;;;;;;;;;5053717;28;20212;-63
2023/01/14 13:00:51;;;;;;;24.13;16.67;;;;;;;;;;5054277;28;20814;-63
2023/01/14 13:03:22;;;;;;;21.50;15.70;;;;;;;;;;5054530;28;20304;-64
2023/01/14 13:05:50;;;;;;;24.10;15.23;;;;;;;;;;5054037;28;20303;-64
2023/01/14 13:08:20;;;;;;;21.60;14.90;;;;;;;;;;5054170;28;20197;-64
2023/01/14 13:10:47;;;;;;;21.10;14.38;;;;;;;;;;5053322;28;20231;-63
2023/01/14 13:13:21;;;;;;;20.05;13.82;;;;;;;;;;5053696;28;20212;-63
2023/01/14 13:15:48;;;;;;;19.60;12.25;;;;;;;;;;5053201;28;20308;-63
2023/01/14 13:18:34;;;;;;;18.48;11.70;;;;;;;;;;5053242;28;20697;-64
2023/01/14 13:21:04;;;;;;;16.83;13.40;;;;;;;;;;5053061;28;20200;-64
2023/01/14 13:23:50;;;;;;;18.42;13.07;;;;;;;;;;5052668;28;20737;-64
2023/01/14 13:26:21;;;;;;;16.20;13.05;;;;;;;;;;5052717;28;20205;-63
2023/01/14 13:29:06;;;;;;;14.85;11.77;;;;;;;;;;5053454;28;20205;-63
2023/01/14 13:31:35;;;;;;;16.20;11.80;;;;;;;;;;5053510;28;20224;-64
2023/01/14 13:34:21;;;;;;;14.98;11.32;;;;;;;;;;5053882;28;20231;-64
2023/01/14 13:36:50;;;;;;;14.23;10.77;;;;;;;;;;5057403;28;20303;-64
2023/01/14 13:39:20;;;;;;;11.13;9.80;;;;;;;;;;5056768;28;20291;-64
2023/01/14 13:41:49;;;;;;;13.65;9.70;;;;;;;;;;5057202;28;20590;-64
2023/01/14 13:44:22;;;;;;;11.13;9.65;;;;;;;;;;5057744;28;20295;-64
2023/01/14 13:46:51;;;;;;;12.57;9.25;;;;;;;;;;5057665;28;20250;-64
2023/01/14 13:49:31;;;;;;;9.60;8.60;;;;;;;;;;5057379;28;20607;-63
2023/01/14 13:52:03;;;;;;;11.85;8.52;;;;;;;;;;5057007;28;20237;-63
2023/01/14 13:54:32;;;;;;;10.55;7.53;;;;;;;;;;5072877;28;20493;-63
2023/01/14 13:57:10;;;;;;;10.20;7.80;;;;;;;;;;5077203;28;20636;-64
2023/01/14 13:59:38;;;;;;;10.43;7.57;;;;;;;;;;5076913;28;20307;-63
2023/01/14 14:02:30;;;;;;;8.20;6.88;;;;;;;;;;5076523;28;20685;-65
2023/01/14 14:05:04;;;;;;;8.50;6.38;;;;;;;;;;5076134;28;20667;-64
2023/01/14 14:07:50;;;;;;;8.32;6.55;;;;;;;;;;5077521;28;20199;-64
2023/01/14 14:10:22;;;;;;;8.32;6.75;;;;;;;;;;5077350;28;20263;-63
2023/01/14 14:15:41;;;;;;;6.93;5.65;;;;;;;;;;5077365;28;20199;-63
2023/01/14 14:18:17;;;;;;;6.40;5.40;;;;;;;;;;5077201;28;20300;-64
2023/01/14 14:20:45;;;;;;;7.43;5.55;;;;;;;;;;5077909;28;20214;-64
2023/01/14 14:23:20;;;;;;;9.30;6.20;;;;;;;;;;5076521;28;20619;-64
2023/01/14 14:25:50;;;;;;;5.53;4.95;;;;;;;;;;5077461;28;20243;-63
2023/01/14 14:28:20;;;;;;;5.55;4.95;;;;;;;;;;5077883;28;20518;-64
2023/01/14 14:30:50;;;;;;;5.75;5.00;;;;;;;;;;5077245;28;20224;-64
2023/01/14 14:33:31;;;;;;;5.75;4.78;;;;;;;;;;5076453;28;20691;-63
2023/01/14 14:35:58;;;;;;;6.40;5.20;;;;;;;;;;5076738;28;20243;-63
2023/01/14 14:38:27;;;;;;;4.97;4.18;;;;;;;;;;5076683;28;20308;-63
2023/01/14 14:40:56;;;;;;;5.05;4.55;;;;;;;;;;5076131;28;20291;-63
2023/01/14 14:43:25;;;;;;;6.22;4.70;;;;;;;;;;5076795;28;20205;-64
2023/01/14 14:46:02;;;;;;;6.35;4.32;;;;;;;;;;5075808;28;20291;-63
2023/01/14 14:48:30;;;;;;;4.53;3.97;;;;;;;;;;5076532;28;20467;-63
2023/01/14 14:50:58;;;;;;;5.07;3.60;;;;;;;;;;5076096;28;20331;-63
2023/01/14 14:53:30;;;;;;;4.70;3.85;;;;;;;;;;5075172;28;20204;-64
2023/01/14 14:56:00;;;;;;;4.63;3.60;;;;;;;;;;5075108;28;20229;-63
2023/01/14 14:58:28;;;;;;;5.28;3.80;;;;;;;;;;5076100;28;20435;-63
2023/01/14 15:00:56;;;;;;;3.95;3.40;;;;;;;;;;5075696;28;20291;-64
2023/01/14 15:03:25;;;;;;;3.97;3.47;;;;;;;;;;5076797;28;20550;-64
2023/01/14 15:05:53;;;;;;;4.10;3.20;;;;;;;;;;5076963;28;20463;-64
2023/01/14 15:08:23;;;;;;;4.25;3.17;;;;;;;;;;5076335;28;20824;-63
2023/01/14 15:10:51;;;;;;;3.85;3.30;;;;;;;;;;5076062;28;20234;-63
2023/01/14 15:13:22;;;;;;;3.83;3.20;;;;;;;;;;5076195;28;20204;-64
2023/01/14 15:16:03;;;;;;;4.93;2.92;;;;;;;;;;5075819;28;20286;-63
2023/01/14 15:18:32;;;;;;;3.40;2.83;;;;;;;;;;5076122;28;20204;-64
2023/01/14 15:21:00;;;;;;;3.35;2.90;;;;;;;;;;5075641;28;20206;-64
2023/01/14 15:23:28;;;;;;;3.17;2.60;;;;;;;;;;5076012;28;20212;-63
2023/01/14 15:25:55;;;;;;;2.85;2.40;;;;;;;;;;5076110;28;20602;-63
2023/01/14 15:28:25;;;;;;;3.58;2.72;;;;;;;;;;5075619;28;20295;-64
2023/01/14 15:30:56;;;;;;;2.50;2.30;;;;;;;;;;5075245;28;20319;-63
2023/01/14 15:33:27;;;;;;;2.67;2.40;;;;;;;;;;5075531;28;20218;-63
2023/01/14 15:35:59;;;;;;;3.05;2.40;;;;;;;;;;5075736;28;20205;-64
2023/01/14 15:38:27;;;;;;;2.78;2.45;;;;;;;;;;5075936;28;20653;-64
2023/01/14 15:40:55;;;;;;;2.53;2.17;;;;;;;;;;5075365;28;20210;-64